sensor_id;sensor_type;location;lat;lon;timestamp;P1;durP1;ratioP1;P2;durP2;ratioP2
70715;SDS011;59053;50.832;12.882;2023-04-16T00:02:09;40.22;;;16.20;;
70715;SDS011;59053;50.832;12.882;2023-04-16T00:04:38;37.37;;;16.07;;
70715;SDS011;59053;50.832;12.882;2023-04-16T00:07:03;39.70;;;17.15;;
70715;SDS011;59053;50.832;12.882;2023-04-16T00:09:34;38.97;;;15.93;;
70715;SDS011;59053;50.832;12.882;2023-04-16T00:12:02;34.28;;;15.30;;
70715;SDS011;59053;50.832;12.882;2023-04-16T00:14:28;39.17;;;16.05;;
70715;SDS011;59053;50.832;12.882;2023-04-16T00:16:54;39.47;;;16.57;;
70715;SDS011;59053;50.832;12.882;2023-04-16T00:19:19;39.88;;;17.15;;
70715;SDS011;59053;50.832;12.882;2023-04-16T00:21:45;40.77;;;16.27;;
70715;SDS011;59053;50.832;12.882;2023-04-16T00:24:10;39.20;;;16.00;;
70715;SDS011;59053;50.832;12.882;2023-04-16T00:26:36;43.23;;;17.07;;
70715;SDS011;59053;50.832;12.882;2023-04-16T00:29:05;45.50;;;17.37;;
70715;SDS011;59053;50.832;12.882;2023-04-16T00:31:31;44.13;;;17.08;;
70715;SDS011;59053;50.832;12.882;2023-04-16T00:33:57;43.00;;;16.40;;
70715;SDS011;59053;50.832;12.882;2023-04-16T00:36:23;41.95;;;16.92;;
70715;SDS011;59053;50.832;12.882;2023-04-16T00:38:51;42.03;;;16.70;;
70715;SDS011;59053;50.832;12.882;2023-04-16T00:41:16;42.63;;;16.83;;
70715;SDS011;59053;50.832;12.882;2023-04-16T00:46:54;53.13;;;18.40;;
70715;SDS011;59053;50.832;12.882;2023-04-16T00:49:20;50.83;;;18.33;;
70715;SDS011;59053;50.832;12.882;2023-04-16T00:51:46;44.07;;;17.30;;
70715;SDS011;59053;50.832;12.882;2023-04-16T00:54:14;49.00;;;18.52;;
70715;SDS011;59053;50.832;12.882;2023-04-16T00:56:39;40.73;;;16.83;;
70715;SDS011;59053;50.832;12.882;2023-04-16T00:59:05;39.93;;;15.83;;
70715;SDS011;59053;50.832;12.882;2023-04-16T01:01:30;43.30;;;16.38;;
70715;SDS011;59053;50.832;12.882;2023-04-16T01:03:56;38.90;;;15.90;;
70715;SDS011;59053;50.832;12.882;2023-04-16T01:06:21;40.93;;;16.37;;
70715;SDS011;59053;50.832;12.882;2023-04-16T01:08:47;39.35;;;16.17;;
70715;SDS011;59053;50.832;12.882;2023-04-16T01:11:13;40.50;;;16.00;;
70715;SDS011;59053;50.832;12.882;2023-04-16T01:13:39;42.42;;;17.00;;
70715;SDS011;59053;50.832;12.882;2023-04-16T01:16:08;40.93;;;16.33;;
70715;SDS011;59053;50.832;12.882;2023-04-16T01:18:35;45.30;;;17.02;;
70715;SDS011;59053;50.832;12.882;2023-04-16T01:21:01;44.72;;;17.17;;
70715;SDS011;59053;50.832;12.882;2023-04-16T01:26:28;45.23;;;16.57;;
70715;SDS011;59053;50.832;12.882;2023-04-16T01:28:56;44.90;;;16.70;;
70715;SDS011;59053;50.832;12.882;2023-04-16T01:31:21;46.13;;;17.13;;
70715;SDS011;59053;50.832;12.882;2023-04-16T01:34:07;42.33;;;17.00;;
70715;SDS011;59053;50.832;12.882;2023-04-16T01:36:33;44.47;;;17.73;;
70715;SDS011;59053;50.832;12.882;2023-04-16T01:41:55;39.37;;;16.33;;
70715;SDS011;59053;50.832;12.882;2023-04-16T01:44:21;40.88;;;16.52;;
70715;SDS011;59053;50.832;12.882;2023-04-16T01:46:47;36.10;;;15.27;;
70715;SDS011;59053;50.832;12.882;2023-04-16T01:49:13;41.45;;;16.48;;
70715;SDS011;59053;50.832;12.882;2023-04-16T01:54:26;35.43;;;15.00;;
70715;SDS011;59053;50.832;12.882;2023-04-16T01:56:51;39.65;;;15.55;;
70715;SDS011;59053;50.832;12.882;2023-04-16T01:59:16;36.80;;;15.63;;
70715;SDS011;59053;50.832;12.882;2023-04-16T02:04:53;42.00;;;16.13;;
70715;SDS011;59053;50.832;12.882;2023-04-16T02:07:19;38.08;;;15.70;;
70715;SDS011;59053;50.832;12.882;2023-04-16T02:09:44;39.53;;;16.10;;
70715;SDS011;59053;50.832;12.882;2023-04-16T02:12:10;40.70;;;15.37;;
70715;SDS011;59053;50.832;12.882;2023-04-16T02:14:35;38.50;;;15.80;;
70715;SDS011;59053;50.832;12.882;2023-04-16T02:17:01;37.93;;;15.50;;
70715;SDS011;59053;50.832;12.882;2023-04-16T02:19:38;36.65;;;14.90;;
70715;SDS011;59053;50.832;12.882;2023-04-16T02:22:04;38.57;;;15.57;;
70715;SDS011;59053;50.832;12.882;2023-04-16T02:24:29;39.40;;;16.00;;
70715;SDS011;59053;50.832;12.882;2023-04-16T02:26:57;39.97;;;15.98;;
70715;SDS011;59053;50.832;12.882;2023-04-16T02:29:22;38.97;;;15.23;;
70715;SDS011;59053;50.832;12.882;2023-04-16T02:31:58;40.08;;;16.33;;
70715;SDS011;59053;50.832;12.882;2023-04-16T02:34:24;38.20;;;16.02;;
70715;SDS011;59053;50.832;12.882;2023-04-16T02:36:50;36.97;;;15.37;;
70715;SDS011;59053;50.832;12.882;2023-04-16T02:39:15;40.65;;;15.75;;
70715;SDS011;59053;50.832;12.882;2023-04-16T02:41:41;38.13;;;15.80;;
70715;SDS011;59053;50.832;12.882;2023-04-16T02:44:06;38.13;;;16.27;;
70715;SDS011;59053;50.832;12.882;2023-04-16T02:46:32;37.80;;;15.50;;
70715;SDS011;59053;50.832;12.882;2023-04-16T02:49:00;44.55;;;15.98;;
70715;SDS011;59053;50.832;12.882;2023-04-16T02:51:25;36.87;;;14.57;;
70715;SDS011;59053;50.832;12.882;2023-04-16T02:53:51;37.80;;;14.52;;
70715;SDS011;59053;50.832;12.882;2023-04-16T02:56:17;37.57;;;14.90;;
70715;SDS011;59053;50.832;12.882;2023-04-16T02:58:42;36.93;;;14.77;;
70715;SDS011;59053;50.832;12.882;2023-04-16T03:01:08;34.80;;;14.48;;
70715;SDS011;59053;50.832;12.882;2023-04-16T03:03:33;35.90;;;13.93;;
70715;SDS011;59053;50.832;12.882;2023-04-16T03:06:01;35.47;;;13.93;;
70715;SDS011;59053;50.832;12.882;2023-04-16T03:08:27;33.67;;;14.23;;
70715;SDS011;59053;50.832;12.882;2023-04-16T03:10:52;37.13;;;14.77;;
70715;SDS011;59053;50.832;12.882;2023-04-16T03:13:18;34.07;;;14.10;;
70715;SDS011;59053;50.832;12.882;2023-04-16T03:15:49;38.15;;;14.95;;
70715;SDS011;59053;50.832;12.882;2023-04-16T03:18:15;36.40;;;14.10;;
70715;SDS011;59053;50.832;12.882;2023-04-16T03:20:40;35.47;;;13.93;;
70715;SDS011;59053;50.832;12.882;2023-04-16T03:23:06;33.10;;;14.00;;
70715;SDS011;59053;50.832;12.882;2023-04-16T03:25:31;33.90;;;14.00;;
70715;SDS011;59053;50.832;12.882;2023-04-16T03:27:57;30.57;;;14.27;;
70715;SDS011;59053;50.832;12.882;2023-04-16T03:30:23;31.38;;;13.23;;
70715;SDS011;59053;50.832;12.882;2023-04-16T03:32:49;30.57;;;13.37;;
70715;SDS011;59053;50.832;12.882;2023-04-16T03:35:14;31.58;;;13.60;;
70715;SDS011;59053;50.832;12.882;2023-04-16T03:37:40;30.50;;;13.27;;
70715;SDS011;59053;50.832;12.882;2023-04-16T03:40:06;29.87;;;13.33;;
70715;SDS011;59053;50.832;12.882;2023-04-16T03:42:32;31.70;;;12.95;;
70715;SDS011;59053;50.832;12.882;2023-04-16T03:44:57;29.37;;;13.37;;
70715;SDS011;59053;50.832;12.882;2023-04-16T03:47:23;33.40;;;14.20;;
70715;SDS011;59053;50.832;12.882;2023-04-16T03:49:52;33.92;;;13.52;;
70715;SDS011;59053;50.832;12.882;2023-04-16T03:52:18;32.57;;;13.93;;
70715;SDS011;59053;50.832;12.882;2023-04-16T03:54:43;32.20;;;14.10;;
70715;SDS011;59053;50.832;12.882;2023-04-16T03:57:32;33.97;;;13.68;;
70715;SDS011;59053;50.832;12.882;2023-04-16T04:00:10;33.30;;;13.50;;
70715;SDS011;59053;50.832;12.882;2023-04-16T04:02:59;32.10;;;13.93;;
70715;SDS011;59053;50.832;12.882;2023-04-16T04:05:24;31.73;;;13.50;;
70715;SDS011;59053;50.832;12.882;2023-04-16T04:07:51;33.25;;;14.52;;
70715;SDS011;59053;50.832;12.882;2023-04-16T04:10:17;34.83;;;14.03;;
70715;SDS011;59053;50.832;12.882;2023-04-16T04:12:43;33.28;;;13.70;;
70715;SDS011;59053;50.832;12.882;2023-04-16T04:15:09;36.67;;;13.93;;
70715;SDS011;59053;50.832;12.882;2023-04-16T04:17:35;34.65;;;14.75;;
70715;SDS011;59053;50.832;12.882;2023-04-16T04:20:01;32.93;;;13.67;;
70715;SDS011;59053;50.832;12.882;2023-04-16T04:22:27;33.65;;;13.52;;
70715;SDS011;59053;50.832;12.882;2023-04-16T04:24:53;32.25;;;13.48;;
70715;SDS011;59053;50.832;12.882;2023-04-16T04:27:18;33.53;;;13.67;;
70715;SDS011;59053;50.832;12.882;2023-04-16T04:29:44;31.83;;;13.93;;
70715;SDS011;59053;50.832;12.882;2023-04-16T04:32:09;31.17;;;13.23;;
70715;SDS011;59053;50.832;12.882;2023-04-16T04:34:35;32.08;;;13.30;;
70715;SDS011;59053;50.832;12.882;2023-04-16T04:37:00;31.60;;;13.57;;
70715;SDS011;59053;50.832;12.882;2023-04-16T04:39:27;32.47;;;13.77;;
70715;SDS011;59053;50.832;12.882;2023-04-16T04:41:52;33.20;;;13.80;;
70715;SDS011;59053;50.832;12.882;2023-04-16T04:44:18;32.72;;;13.63;;
70715;SDS011;59053;50.832;12.882;2023-04-16T04:46:43;32.47;;;13.57;;
70715;SDS011;59053;50.832;12.882;2023-04-16T04:49:10;33.85;;;13.60;;
70715;SDS011;59053;50.832;12.882;2023-04-16T04:54:27;28.63;;;12.90;;
70715;SDS011;59053;50.832;12.882;2023-04-16T04:56:53;29.50;;;12.45;;
70715;SDS011;59053;50.832;12.882;2023-04-16T04:59:19;31.97;;;13.53;;
70715;SDS011;59053;50.832;12.882;2023-04-16T05:01:45;31.13;;;12.60;;
70715;SDS011;59053;50.832;12.882;2023-04-16T05:04:11;29.37;;;12.97;;
70715;SDS011;59053;50.832;12.882;2023-04-16T05:06:36;28.00;;;11.88;;
70715;SDS011;59053;50.832;12.882;2023-04-16T05:09:01;30.33;;;11.90;;
70715;SDS011;59053;50.832;12.882;2023-04-16T05:11:28;28.13;;;12.00;;
70715;SDS011;59053;50.832;12.882;2023-04-16T05:13:53;27.55;;;11.93;;
70715;SDS011;59053;50.832;12.882;2023-04-16T05:16:19;28.17;;;11.60;;
70715;SDS011;59053;50.832;12.882;2023-04-16T05:18:44;27.52;;;11.55;;
70715;SDS011;59053;50.832;12.882;2023-04-16T05:21:10;26.97;;;11.77;;
70715;SDS011;59053;50.832;12.882;2023-04-16T05:23:35;26.37;;;11.67;;
70715;SDS011;59053;50.832;12.882;2023-04-16T05:26:00;26.27;;;11.93;;
70715;SDS011;59053;50.832;12.882;2023-04-16T05:28:26;28.27;;;11.77;;
70715;SDS011;59053;50.832;12.882;2023-04-16T05:30:51;24.13;;;11.47;;
70715;SDS011;59053;50.832;12.882;2023-04-16T05:33:16;23.27;;;11.20;;
70715;SDS011;59053;50.832;12.882;2023-04-16T05:35:42;27.30;;;11.83;;
70715;SDS011;59053;50.832;12.882;2023-04-16T05:38:07;27.63;;;12.00;;
70715;SDS011;59053;50.832;12.882;2023-04-16T05:40:32;26.20;;;11.80;;
70715;SDS011;59053;50.832;12.882;2023-04-16T05:42:58;25.83;;;11.60;;
70715;SDS011;59053;50.832;12.882;2023-04-16T05:45:23;25.40;;;11.67;;
70715;SDS011;59053;50.832;12.882;2023-04-16T05:47:49;26.63;;;12.00;;
70715;SDS011;59053;50.832;12.882;2023-04-16T05:50:14;24.73;;;11.07;;
70715;SDS011;59053;50.832;12.882;2023-04-16T05:52:40;25.87;;;11.17;;
70715;SDS011;59053;50.832;12.882;2023-04-16T05:55:05;25.85;;;11.30;;
70715;SDS011;59053;50.832;12.882;2023-04-16T05:57:31;23.80;;;11.13;;
70715;SDS011;59053;50.832;12.882;2023-04-16T05:59:57;24.45;;;11.65;;
70715;SDS011;59053;50.832;12.882;2023-04-16T06:02:22;25.20;;;11.40;;
70715;SDS011;59053;50.832;12.882;2023-04-16T06:04:48;24.23;;;10.80;;
70715;SDS011;59053;50.832;12.882;2023-04-16T06:07:14;27.58;;;11.75;;
70715;SDS011;59053;50.832;12.882;2023-04-16T06:09:39;24.60;;;11.00;;
70715;SDS011;59053;50.832;12.882;2023-04-16T06:12:05;26.42;;;11.85;;
70715;SDS011;59053;50.832;12.882;2023-04-16T06:14:30;25.93;;;12.00;;
70715;SDS011;59053;50.832;12.882;2023-04-16T06:16:55;27.47;;;11.83;;
70715;SDS011;59053;50.832;12.882;2023-04-16T06:19:21;24.67;;;11.30;;
70715;SDS011;59053;50.832;12.882;2023-04-16T06:21:48;27.52;;;12.30;;
70715;SDS011;59053;50.832;12.882;2023-04-16T06:24:14;27.35;;;11.48;;
70715;SDS011;59053;50.832;12.882;2023-04-16T06:26:39;26.30;;;11.90;;
70715;SDS011;59053;50.832;12.882;2023-04-16T06:29:05;25.40;;;11.40;;
70715;SDS011;59053;50.832;12.882;2023-04-16T06:31:30;28.57;;;12.13;;
70715;SDS011;59053;50.832;12.882;2023-04-16T06:33:55;24.43;;;11.43;;
70715;SDS011;59053;50.832;12.882;2023-04-16T06:36:21;25.00;;;11.10;;
70715;SDS011;59053;50.832;12.882;2023-04-16T06:42:19;22.70;;;10.60;;
70715;SDS011;59053;50.832;12.882;2023-04-16T06:44:45;23.75;;;10.98;;
70715;SDS011;59053;50.832;12.882;2023-04-16T06:47:15;26.17;;;11.52;;
70715;SDS011;59053;50.832;12.882;2023-04-16T06:49:41;24.80;;;11.23;;
70715;SDS011;59053;50.832;12.882;2023-04-16T06:52:06;26.02;;;11.35;;
70715;SDS011;59053;50.832;12.882;2023-04-16T06:54:38;27.90;;;11.47;;
70715;SDS011;59053;50.832;12.882;2023-04-16T06:57:18;25.98;;;11.90;;
70715;SDS011;59053;50.832;12.882;2023-04-16T06:59:43;24.13;;;11.32;;
70715;SDS011;59053;50.832;12.882;2023-04-16T07:02:17;24.70;;;11.73;;
70715;SDS011;59053;50.832;12.882;2023-04-16T07:07:45;25.80;;;12.23;;
70715;SDS011;59053;50.832;12.882;2023-04-16T07:10:17;30.60;;;12.30;;
70715;SDS011;59053;50.832;12.882;2023-04-16T07:12:51;27.35;;;11.90;;
70715;SDS011;59053;50.832;12.882;2023-04-16T07:15:16;29.65;;;12.23;;
70715;SDS011;59053;50.832;12.882;2023-04-16T07:17:42;28.53;;;11.70;;
70715;SDS011;59053;50.832;12.882;2023-04-16T07:20:07;33.27;;;13.07;;
70715;SDS011;59053;50.832;12.882;2023-04-16T07:22:33;31.33;;;13.07;;
70715;SDS011;59053;50.832;12.882;2023-04-16T07:24:58;30.37;;;12.60;;
70715;SDS011;59053;50.832;12.882;2023-04-16T07:27:24;32.63;;;12.75;;
70715;SDS011;59053;50.832;12.882;2023-04-16T07:29:49;35.50;;;13.43;;
70715;SDS011;59053;50.832;12.882;2023-04-16T07:32:15;30.23;;;12.37;;
70715;SDS011;59053;50.832;12.882;2023-04-16T07:34:40;28.92;;;12.15;;
70715;SDS011;59053;50.832;12.882;2023-04-16T07:37:06;30.93;;;12.17;;
70715;SDS011;59053;50.832;12.882;2023-04-16T07:39:31;30.83;;;12.63;;
70715;SDS011;59053;50.832;12.882;2023-04-16T07:42:02;29.95;;;13.05;;
70715;SDS011;59053;50.832;12.882;2023-04-16T07:44:28;29.07;;;12.30;;
70715;SDS011;59053;50.832;12.882;2023-04-16T07:50:40;28.33;;;12.35;;
70715;SDS011;59053;50.832;12.882;2023-04-16T07:53:25;29.50;;;12.93;;
70715;SDS011;59053;50.832;12.882;2023-04-16T07:55:52;31.03;;;12.90;;
70715;SDS011;59053;50.832;12.882;2023-04-16T07:58:18;35.72;;;14.27;;
70715;SDS011;59053;50.832;12.882;2023-04-16T08:00:43;31.73;;;13.27;;
70715;SDS011;59053;50.832;12.882;2023-04-16T08:03:09;29.60;;;12.63;;
70715;SDS011;59053;50.832;12.882;2023-04-16T08:05:35;33.17;;;13.80;;
70715;SDS011;59053;50.832;12.882;2023-04-16T08:08:00;30.40;;;12.77;;
70715;SDS011;59053;50.832;12.882;2023-04-16T08:10:26;31.87;;;13.30;;
70715;SDS011;59053;50.832;12.882;2023-04-16T08:12:57;31.42;;;13.90;;
70715;SDS011;59053;50.832;12.882;2023-04-16T08:15:24;30.73;;;12.82;;
70715;SDS011;59053;50.832;12.882;2023-04-16T08:17:56;32.25;;;13.40;;
70715;SDS011;59053;50.832;12.882;2023-04-16T08:20:33;28.63;;;12.70;;
70715;SDS011;59053;50.832;12.882;2023-04-16T08:23:04;30.58;;;12.75;;
70715;SDS011;59053;50.832;12.882;2023-04-16T08:25:32;26.35;;;11.68;;
70715;SDS011;59053;50.832;12.882;2023-04-16T08:28:00;25.93;;;11.30;;
70715;SDS011;59053;50.832;12.882;2023-04-16T08:30:48;26.08;;;10.43;;
70715;SDS011;59053;50.832;12.882;2023-04-16T08:33:16;23.43;;;10.87;;
70715;SDS011;59053;50.832;12.882;2023-04-16T08:35:46;26.75;;;11.60;;
70715;SDS011;59053;50.832;12.882;2023-04-16T08:38:12;28.08;;;11.93;;
70715;SDS011;59053;50.832;12.882;2023-04-16T08:40:40;29.53;;;11.63;;
70715;SDS011;59053;50.832;12.882;2023-04-16T08:43:08;26.80;;;11.52;;
70715;SDS011;59053;50.832;12.882;2023-04-16T08:45:42;26.33;;;11.50;;
70715;SDS011;59053;50.832;12.882;2023-04-16T08:51:25;19.35;;;9.05;;
70715;SDS011;59053;50.832;12.882;2023-04-16T08:54:07;20.63;;;8.93;;
70715;SDS011;59053;50.832;12.882;2023-04-16T08:56:35;20.65;;;9.18;;
70715;SDS011;59053;50.832;12.882;2023-04-16T08:59:01;19.98;;;9.25;;
70715;SDS011;59053;50.832;12.882;2023-04-16T09:01:31;18.52;;;8.55;;
70715;SDS011;59053;50.832;12.882;2023-04-16T09:03:58;19.77;;;9.07;;
70715;SDS011;59053;50.832;12.882;2023-04-16T09:06:29;17.50;;;8.20;;
70715;SDS011;59053;50.832;12.882;2023-04-16T09:08:58;19.23;;;8.15;;
70715;SDS011;59053;50.832;12.882;2023-04-16T09:11:29;19.38;;;9.52;;
70715;SDS011;59053;50.832;12.882;2023-04-16T09:14:04;15.52;;;7.93;;
70715;SDS011;59053;50.832;12.882;2023-04-16T09:16:36;13.13;;;6.40;;
70715;SDS011;59053;50.832;12.882;2023-04-16T09:19:03;16.43;;;6.97;;
70715;SDS011;59053;50.832;12.882;2023-04-16T09:21:28;20.48;;;8.23;;
70715;SDS011;59053;50.832;12.882;2023-04-16T09:23:54;15.65;;;6.25;;
70715;SDS011;59053;50.832;12.882;2023-04-16T09:26:20;14.13;;;6.93;;
70715;SDS011;59053;50.832;12.882;2023-04-16T09:28:47;14.32;;;7.50;;
70715;SDS011;59053;50.832;12.882;2023-04-16T09:31:16;15.50;;;7.50;;
70715;SDS011;59053;50.832;12.882;2023-04-16T09:33:42;14.23;;;7.00;;
70715;SDS011;59053;50.832;12.882;2023-04-16T09:36:25;14.05;;;7.45;;
70715;SDS011;59053;50.832;12.882;2023-04-16T09:38:51;14.73;;;7.60;;
70715;SDS011;59053;50.832;12.882;2023-04-16T09:41:23;14.85;;;7.65;;
70715;SDS011;59053;50.832;12.882;2023-04-16T09:43:54;15.03;;;7.30;;
70715;SDS011;59053;50.832;12.882;2023-04-16T09:46:30;16.40;;;8.15;;
70715;SDS011;59053;50.832;12.882;2023-04-16T09:48:56;15.73;;;7.72;;
70715;SDS011;59053;50.832;12.882;2023-04-16T09:51:21;15.30;;;7.30;;
70715;SDS011;59053;50.832;12.882;2023-04-16T09:53:50;16.17;;;8.20;;
70715;SDS011;59053;50.832;12.882;2023-04-16T09:56:18;14.95;;;6.68;;
70715;SDS011;59053;50.832;12.882;2023-04-16T09:58:58;13.93;;;7.07;;
70715;SDS011;59053;50.832;12.882;2023-04-16T10:01:27;14.55;;;7.28;;
70715;SDS011;59053;50.832;12.882;2023-04-16T10:03:54;14.55;;;7.22;;
70715;SDS011;59053;50.832;12.882;2023-04-16T10:06:38;12.43;;;6.10;;
70715;SDS011;59053;50.832;12.882;2023-04-16T10:09:05;14.63;;;7.00;;
70715;SDS011;59053;50.832;12.882;2023-04-16T10:11:31;12.63;;;5.80;;
70715;SDS011;59053;50.832;12.882;2023-04-16T10:13:57;14.17;;;6.93;;
70715;SDS011;59053;50.832;12.882;2023-04-16T10:16:22;13.17;;;6.57;;
70715;SDS011;59053;50.832;12.882;2023-04-16T10:22:07;14.27;;;6.28;;
70715;SDS011;59053;50.832;12.882;2023-04-16T10:24:33;14.87;;;6.50;;
70715;SDS011;59053;50.832;12.882;2023-04-16T10:26:58;13.85;;;6.72;;
70715;SDS011;59053;50.832;12.882;2023-04-16T10:29:25;13.30;;;6.67;;
70715;SDS011;59053;50.832;12.882;2023-04-16T10:31:54;10.18;;;4.70;;
70715;SDS011;59053;50.832;12.882;2023-04-16T10:34:20;13.43;;;6.45;;
70715;SDS011;59053;50.832;12.882;2023-04-16T10:36:48;13.50;;;5.90;;
70715;SDS011;59053;50.832;12.882;2023-04-16T10:39:20;11.43;;;5.63;;
70715;SDS011;59053;50.832;12.882;2023-04-16T10:45:05;11.00;;;5.72;;
70715;SDS011;59053;50.832;12.882;2023-04-16T10:47:30;14.67;;;6.67;;
70715;SDS011;59053;50.832;12.882;2023-04-16T10:49:56;12.23;;;6.33;;
70715;SDS011;59053;50.832;12.882;2023-04-16T10:52:22;13.88;;;6.22;;
70715;SDS011;59053;50.832;12.882;2023-04-16T10:54:49;7.85;;;4.28;;
70715;SDS011;59053;50.832;12.882;2023-04-16T10:57:17;12.68;;;5.55;;
70715;SDS011;59053;50.832;12.882;2023-04-16T10:59:43;11.95;;;6.18;;
70715;SDS011;59053;50.832;12.882;2023-04-16T11:02:16;12.23;;;5.83;;
70715;SDS011;59053;50.832;12.882;2023-04-16T11:04:46;11.88;;;6.10;;
70715;SDS011;59053;50.832;12.882;2023-04-16T11:09:53;10.85;;;5.45;;
70715;SDS011;59053;50.832;12.882;2023-04-16T11:12:37;10.77;;;5.40;;
70715;SDS011;59053;50.832;12.882;2023-04-16T11:15:05;11.17;;;6.00;;
70715;SDS011;59053;50.832;12.882;2023-04-16T11:17:36;10.05;;;5.10;;
70715;SDS011;59053;50.832;12.882;2023-04-16T11:20:09;10.57;;;5.38;;
70715;SDS011;59053;50.832;12.882;2023-04-16T11:22:39;10.68;;;5.50;;
70715;SDS011;59053;50.832;12.882;2023-04-16T11:25:21;10.75;;;5.43;;
70715;SDS011;59053;50.832;12.882;2023-04-16T11:27:51;9.80;;;5.00;;
70715;SDS011;59053;50.832;12.882;2023-04-16T11:30:17;11.13;;;5.47;;
70715;SDS011;59053;50.832;12.882;2023-04-16T11:32:43;12.02;;;5.60;;
70715;SDS011;59053;50.832;12.882;2023-04-16T11:35:13;10.00;;;5.05;;
70715;SDS011;59053;50.832;12.882;2023-04-16T11:37:40;11.50;;;5.63;;
70715;SDS011;59053;50.832;12.882;2023-04-16T11:40:06;9.38;;;4.97;;
70715;SDS011;59053;50.832;12.882;2023-04-16T11:42:33;7.28;;;3.25;;
70715;SDS011;59053;50.832;12.882;2023-04-16T11:45:01;9.45;;;4.57;;
70715;SDS011;59053;50.832;12.882;2023-04-16T11:47:30;9.77;;;4.63;;
70715;SDS011;59053;50.832;12.882;2023-04-16T11:49:56;8.67;;;3.23;;
70715;SDS011;59053;50.832;12.882;2023-04-16T11:52:31;8.48;;;4.28;;
70715;SDS011;59053;50.832;12.882;2023-04-16T11:54:58;11.43;;;4.82;;
70715;SDS011;59053;50.832;12.882;2023-04-16T11:59:50;10.65;;;5.25;;
70715;SDS011;59053;50.832;12.882;2023-04-16T12:02:15;9.13;;;4.70;;
70715;SDS011;59053;50.832;12.882;2023-04-16T12:04:41;11.00;;;5.23;;
70715;SDS011;59053;50.832;12.882;2023-04-16T12:12:40;10.25;;;4.95;;
70715;SDS011;59053;50.832;12.882;2023-04-16T12:15:06;10.13;;;5.03;;
70715;SDS011;59053;50.832;12.882;2023-04-16T12:17:32;10.25;;;5.10;;
70715;SDS011;59053;50.832;12.882;2023-04-16T12:20:09;9.13;;;4.95;;
70715;SDS011;59053;50.832;12.882;2023-04-16T12:22:35;8.50;;;4.23;;
70715;SDS011;59053;50.832;12.882;2023-04-16T12:25:02;8.23;;;4.30;;
70715;SDS011;59053;50.832;12.882;2023-04-16T12:30:17;8.68;;;4.88;;
70715;SDS011;59053;50.832;12.882;2023-04-16T12:32:45;8.93;;;4.43;;
70715;SDS011;59053;50.832;12.882;2023-04-16T12:35:12;6.43;;;3.57;;
70715;SDS011;59053;50.832;12.882;2023-04-16T12:37:38;9.05;;;4.60;;
70715;SDS011;59053;50.832;12.882;2023-04-16T12:40:04;8.80;;;4.88;;
70715;SDS011;59053;50.832;12.882;2023-04-16T12:42:30;8.82;;;4.80;;
70715;SDS011;59053;50.832;12.882;2023-04-16T12:45:03;10.13;;;4.90;;
70715;SDS011;59053;50.832;12.882;2023-04-16T12:47:30;9.82;;;4.78;;
70715;SDS011;59053;50.832;12.882;2023-04-16T12:49:56;9.15;;;4.70;;
70715;SDS011;59053;50.832;12.882;2023-04-16T12:52:22;8.48;;;4.22;;
70715;SDS011;59053;50.832;12.882;2023-04-16T12:57:36;9.50;;;4.57;;
70715;SDS011;59053;50.832;12.882;2023-04-16T13:00:02;8.70;;;4.45;;
70715;SDS011;59053;50.832;12.882;2023-04-16T13:02:32;8.98;;;4.28;;
70715;SDS011;59053;50.832;12.882;2023-04-16T13:04:58;9.43;;;4.97;;
70715;SDS011;59053;50.832;12.882;2023-04-16T13:07:23;11.90;;;5.10;;
70715;SDS011;59053;50.832;12.882;2023-04-16T13:09:50;10.30;;;5.05;;
70715;SDS011;59053;50.832;12.882;2023-04-16T13:12:16;10.43;;;5.30;;
70715;SDS011;59053;50.832;12.882;2023-04-16T13:14:58;9.23;;;4.30;;
70715;SDS011;59053;50.832;12.882;2023-04-16T13:17:23;10.02;;;5.60;;
70715;SDS011;59053;50.832;12.882;2023-04-16T13:19:49;10.70;;;5.60;;
70715;SDS011;59053;50.832;12.882;2023-04-16T13:22:14;11.33;;;5.40;;
70715;SDS011;59053;50.832;12.882;2023-04-16T13:24:39;9.23;;;4.80;;
70715;SDS011;59053;50.832;12.882;2023-04-16T13:27:05;10.37;;;4.67;;
70715;SDS011;59053;50.832;12.882;2023-04-16T13:29:32;11.23;;;5.60;;
70715;SDS011;59053;50.832;12.882;2023-04-16T13:32:00;11.77;;;5.90;;
70715;SDS011;59053;50.832;12.882;2023-04-16T13:34:26;11.33;;;6.27;;
70715;SDS011;59053;50.832;12.882;2023-04-16T13:40:24;10.88;;;5.53;;
70715;SDS011;59053;50.832;12.882;2023-04-16T13:42:50;10.07;;;5.30;;
70715;SDS011;59053;50.832;12.882;2023-04-16T13:45:15;10.20;;;5.00;;
70715;SDS011;59053;50.832;12.882;2023-04-16T13:47:41;9.20;;;4.80;;
70715;SDS011;59053;50.832;12.882;2023-04-16T13:50:07;9.20;;;4.80;;
70715;SDS011;59053;50.832;12.882;2023-04-16T13:52:33;8.70;;;4.77;;
70715;SDS011;59053;50.832;12.882;2023-04-16T13:54:59;8.80;;;4.70;;
70715;SDS011;59053;50.832;12.882;2023-04-16T13:57:25;8.63;;;4.72;;
70715;SDS011;59053;50.832;12.882;2023-04-16T13:59:54;7.30;;;3.70;;
70715;SDS011;59053;50.832;12.882;2023-04-16T14:02:20;9.63;;;5.15;;
70715;SDS011;59053;50.832;12.882;2023-04-16T14:12:08;6.80;;;3.42;;
70715;SDS011;59053;50.832;12.882;2023-04-16T14:14:54;9.20;;;4.10;;
70715;SDS011;59053;50.832;12.882;2023-04-16T14:17:30;7.55;;;3.85;;
70715;SDS011;59053;50.832;12.882;2023-04-16T14:20:10;8.03;;;3.43;;
70715;SDS011;59053;50.832;12.882;2023-04-16T14:23:01;8.40;;;4.00;;
70715;SDS011;59053;50.832;12.882;2023-04-16T14:25:29;7.93;;;3.88;;
70715;SDS011;59053;50.832;12.882;2023-04-16T14:27:55;7.83;;;3.40;;
70715;SDS011;59053;50.832;12.882;2023-04-16T14:30:20;8.77;;;3.83;;
70715;SDS011;59053;50.832;12.882;2023-04-16T14:32:46;9.17;;;4.37;;
70715;SDS011;59053;50.832;12.882;2023-04-16T14:35:29;7.43;;;3.73;;
70715;SDS011;59053;50.832;12.882;2023-04-16T14:37:55;6.43;;;3.03;;
70715;SDS011;59053;50.832;12.882;2023-04-16T14:40:23;5.38;;;2.47;;
70715;SDS011;59053;50.832;12.882;2023-04-16T14:42:54;7.03;;;3.63;;
70715;SDS011;59053;50.832;12.882;2023-04-16T14:51:31;7.15;;;3.40;;
70715;SDS011;59053;50.832;12.882;2023-04-16T14:54:03;4.13;;;1.97;;
70715;SDS011;59053;50.832;12.882;2023-04-16T14:56:31;5.63;;;2.80;;
70715;SDS011;59053;50.832;12.882;2023-04-16T14:58:57;4.45;;;2.10;;
70715;SDS011;59053;50.832;12.882;2023-04-16T15:01:48;7.03;;;2.70;;
70715;SDS011;59053;50.832;12.882;2023-04-16T15:04:13;5.55;;;2.55;;
70715;SDS011;59053;50.832;12.882;2023-04-16T15:06:38;5.90;;;2.70;;
70715;SDS011;59053;50.832;12.882;2023-04-16T15:09:13;6.97;;;2.60;;
70715;SDS011;59053;50.832;12.882;2023-04-16T15:11:38;6.10;;;2.90;;
70715;SDS011;59053;50.832;12.882;2023-04-16T15:14:04;7.20;;;2.88;;
70715;SDS011;59053;50.832;12.882;2023-04-16T15:16:29;5.80;;;2.30;;
70715;SDS011;59053;50.832;12.882;2023-04-16T15:19:10;3.35;;;1.88;;
70715;SDS011;59053;50.832;12.882;2023-04-16T15:21:36;3.03;;;1.40;;
70715;SDS011;59053;50.832;12.882;2023-04-16T15:24:01;4.90;;;2.40;;
70715;SDS011;59053;50.832;12.882;2023-04-16T15:26:27;5.17;;;2.50;;
70715;SDS011;59053;50.832;12.882;2023-04-16T15:28:53;4.75;;;2.30;;
70715;SDS011;59053;50.832;12.882;2023-04-16T15:31:18;3.30;;;1.70;;